sensor_id;sensor_type;location;lat;lon;timestamp;pressure;altitude;pressure_sealevel;temperature;humidity
11415;BME280;5763;42.714;23.244;2023-04-08T00:02:21;94645.72;;;7.99;57.38
11415;BME280;5763;42.714;23.244;2023-04-08T00:04:48;94640.06;;;7.94;57.30
11415;BME280;5763;42.714;23.244;2023-04-08T00:07:14;94638.09;;;7.94;56.80
11415;BME280;5763;42.714;23.244;2023-04-08T00:09:41;94644.72;;;7.93;56.75
11415;BME280;5763;42.714;23.244;2023-04-08T00:12:08;94645.78;;;7.71;57.59
11415;BME280;5763;42.714;23.244;2023-04-08T00:14:36;94648.53;;;7.83;57.59
11415;BME280;5763;42.714;23.244;2023-04-08T00:17:03;94650.81;;;7.85;57.56
11415;BME280;5763;42.714;23.244;2023-04-08T00:19:30;94646.00;;;7.76;57.79
11415;BME280;5763;42.714;23.244;2023-04-08T00:21:56;94645.56;;;7.78;58.22
11415;BME280;5763;42.714;23.244;2023-04-08T00:24:23;94630.53;;;7.73;58.17
11415;BME280;5763;42.714;23.244;2023-04-08T00:26:50;94637.50;;;7.74;58.36
11415;BME280;5763;42.714;23.244;2023-04-08T00:29:17;94637.19;;;7.72;58.70
11415;BME280;5763;42.714;23.244;2023-04-08T00:31:45;94635.56;;;7.75;58.56
11415;BME280;5763;42.714;23.244;2023-04-08T00:34:12;94639.22;;;7.68;58.60
11415;BME280;5763;42.714;23.244;2023-04-08T00:36:39;94636.19;;;7.66;58.70
11415;BME280;5763;42.714;23.244;2023-04-08T00:39:06;94642.91;;;7.62;58.93
11415;BME280;5763;42.714;23.244;2023-04-08T00:41:33;94646.41;;;7.62;59.59
11415;BME280;5763;42.714;23.244;2023-04-08T00:44:00;94655.00;;;7.61;59.36
11415;BME280;5763;42.714;23.244;2023-04-08T00:46:27;94650.50;;;7.54;59.82
11415;BME280;5763;42.714;23.244;2023-04-08T00:48:55;94654.00;;;7.55;60.05
11415;BME280;5763;42.714;23.244;2023-04-08T00:51:22;94650.19;;;7.52;60.01
11415;BME280;5763;42.714;23.244;2023-04-08T00:53:49;94643.78;;;7.59;59.48
11415;BME280;5763;42.714;23.244;2023-04-08T00:56:15;94645.31;;;7.60;59.80
11415;BME280;5763;42.714;23.244;2023-04-08T00:58:42;94646.41;;;7.62;59.70
11415;BME280;5763;42.714;23.244;2023-04-08T01:01:13;94657.34;;;7.75;60.05
11415;BME280;5763;42.714;23.244;2023-04-08T01:03:49;94646.88;;;7.73;60.21
11415;BME280;5763;42.714;23.244;2023-04-08T01:06:31;94645.56;;;7.65;60.49
11415;BME280;5763;42.714;23.244;2023-04-08T01:08:59;94644.09;;;7.61;60.29
11415;BME280;5763;42.714;23.244;2023-04-08T01:11:26;94656.44;;;7.65;60.44
11415;BME280;5763;42.714;23.244;2023-04-08T01:13:57;94654.72;;;7.71;60.22
11415;BME280;5763;42.714;23.244;2023-04-08T01:16:25;94653.72;;;7.65;59.31
11415;BME280;5763;42.714;23.244;2023-04-08T01:18:52;94659.81;;;7.69;58.73
11415;BME280;5763;42.714;23.244;2023-04-08T01:21:21;94653.28;;;7.67;59.02
11415;BME280;5763;42.714;23.244;2023-04-08T01:23:58;94654.16;;;7.64;58.87
11415;BME280;5763;42.714;23.244;2023-04-08T01:26:29;94652.69;;;7.59;58.53
11415;BME280;5763;42.714;23.244;2023-04-08T01:28:58;94663.84;;;7.65;57.98
11415;BME280;5763;42.714;23.244;2023-04-08T01:31:26;94665.25;;;7.69;58.68
11415;BME280;5763;42.714;23.244;2023-04-08T01:33:54;94656.88;;;7.64;58.35
11415;BME280;5763;42.714;23.244;2023-04-08T01:36:22;94660.34;;;7.64;57.77
11415;BME280;5763;42.714;23.244;2023-04-08T01:38:49;94661.75;;;7.56;58.16
11415;BME280;5763;42.714;23.244;2023-04-08T01:41:17;94660.56;;;7.57;58.03
11415;BME280;5763;42.714;23.244;2023-04-08T01:43:47;94661.75;;;7.56;58.04
11415;BME280;5763;42.714;23.244;2023-04-08T01:46:15;94658.25;;;7.56;58.24
11415;BME280;5763;42.714;23.244;2023-04-08T01:48:43;94663.81;;;7.52;58.25
11415;BME280;5763;42.714;23.244;2023-04-08T01:51:11;94661.31;;;7.58;58.58
11415;BME280;5763;42.714;23.244;2023-04-08T01:53:38;94656.09;;;7.63;58.72
11415;BME280;5763;42.714;23.244;2023-04-08T01:56:07;94669.09;;;7.72;58.29
11415;BME280;5763;42.714;23.244;2023-04-08T01:58:37;94664.84;;;7.71;58.87
11415;BME280;5763;42.714;23.244;2023-04-08T02:01:09;94674.22;;;7.70;58.35
11415;BME280;5763;42.714;23.244;2023-04-08T02:03:37;94678.88;;;7.69;58.50
11415;BME280;5763;42.714;23.244;2023-04-08T02:06:04;94678.44;;;7.71;58.37
11415;BME280;5763;42.714;23.244;2023-04-08T02:08:33;94680.19;;;7.65;58.47
11415;BME280;5763;42.714;23.244;2023-04-08T02:11:00;94686.16;;;7.60;58.57
11415;BME280;5763;42.714;23.244;2023-04-08T02:13:27;94688.78;;;7.63;58.53
11415;BME280;5763;42.714;23.244;2023-04-08T02:15:59;94683.00;;;7.61;59.08
11415;BME280;5763;42.714;23.244;2023-04-08T02:18:31;94683.47;;;7.72;58.87
11415;BME280;5763;42.714;23.244;2023-04-08T02:21:06;94692.50;;;7.69;59.09
11415;BME280;5763;42.714;23.244;2023-04-08T02:23:37;94688.50;;;7.74;59.15
11415;BME280;5763;42.714;23.244;2023-04-08T02:26:07;94689.59;;;7.76;59.11
11415;BME280;5763;42.714;23.244;2023-04-08T02:28:38;94683.47;;;7.72;59.44
11415;BME280;5763;42.714;23.244;2023-04-08T02:31:08;94695.47;;;7.75;59.73
11415;BME280;5763;42.714;23.244;2023-04-08T02:33:39;94687.56;;;7.64;60.17
11415;BME280;5763;42.714;23.244;2023-04-08T02:36:07;94677.78;;;7.67;60.00
11415;BME280;5763;42.714;23.244;2023-04-08T02:38:35;94681.59;;;7.69;60.08
11415;BME280;5763;42.714;23.244;2023-04-08T02:41:02;94685.41;;;7.72;60.08
11415;BME280;5763;42.714;23.244;2023-04-08T02:43:29;94681.41;;;7.76;60.28
11415;BME280;5763;42.714;23.244;2023-04-08T02:45:57;94683.69;;;7.78;60.28
11415;BME280;5763;42.714;23.244;2023-04-08T02:48:24;94689.59;;;7.76;60.41
11415;BME280;5763;42.714;23.244;2023-04-08T02:50:52;94682.06;;;7.80;60.25
11415;BME280;5763;42.714;23.244;2023-04-08T02:53:21;94686.75;;;7.80;59.89
11415;BME280;5763;42.714;23.244;2023-04-08T02:55:47;94685.00;;;7.73;60.40
11415;BME280;5763;42.714;23.244;2023-04-08T02:58:14;94678.59;;;7.80;60.06
11415;BME280;5763;42.714;23.244;2023-04-08T03:00:41;94689.59;;;7.76;60.16
11415;BME280;5763;42.714;23.244;2023-04-08T03:03:08;94682.91;;;7.65;59.81
11415;BME280;5763;42.714;23.244;2023-04-08T03:05:34;94694.56;;;7.65;60.04
11415;BME280;5763;42.714;23.244;2023-04-08T03:08:02;94678.13;;;7.69;60.22
11415;BME280;5763;42.714;23.244;2023-04-08T03:10:31;94681.28;;;7.67;60.27
11415;BME280;5763;42.714;23.244;2023-04-08T03:12:57;94673.09;;;7.67;60.63
11415;BME280;5763;42.714;23.244;2023-04-08T03:15:24;94677.69;;;7.70;60.51
11415;BME280;5763;42.714;23.244;2023-04-08T03:17:51;94675.97;;;7.76;60.59
11415;BME280;5763;42.714;23.244;2023-04-08T03:20:18;94676.28;;;7.78;60.15
11415;BME280;5763;42.714;23.244;2023-04-08T03:22:45;94679.34;;;7.80;60.42
11415;BME280;5763;42.714;23.244;2023-04-08T03:25:13;94680.31;;;7.74;60.14
11415;BME280;5763;42.714;23.244;2023-04-08T03:27:40;94676.16;;;7.69;59.88
11415;BME280;5763;42.714;23.244;2023-04-08T03:30:07;94674.50;;;7.59;60.12
11415;BME280;5763;42.714;23.244;2023-04-08T03:32:34;94679.50;;;7.61;60.11
11415;BME280;5763;42.714;23.244;2023-04-08T03:35:01;94682.81;;;7.68;60.73
11415;BME280;5763;42.714;23.244;2023-04-08T03:37:27;94688.56;;;7.70;60.95
11415;BME280;5763;42.714;23.244;2023-04-08T03:39:55;94688.66;;;7.67;60.72
11415;BME280;5763;42.714;23.244;2023-04-08T03:42:23;94670.66;;;7.57;61.27
11415;BME280;5763;42.714;23.244;2023-04-08T03:44:49;94683.75;;;7.62;61.40
11415;BME280;5763;42.714;23.244;2023-04-08T03:47:16;94687.69;;;7.61;61.61
11415;BME280;5763;42.714;23.244;2023-04-08T03:49:43;94682.00;;;7.55;61.96
11415;BME280;5763;42.714;23.244;2023-04-08T03:52:10;94683.06;;;7.45;62.12
11415;BME280;5763;42.714;23.244;2023-04-08T03:54:36;94688.16;;;7.43;62.05
11415;BME280;5763;42.714;23.244;2023-04-08T03:57:03;94679.75;;;7.38;62.57
11415;BME280;5763;42.714;23.244;2023-04-08T03:59:31;94689.44;;;7.39;62.49
11415;BME280;5763;42.714;23.244;2023-04-08T04:01:59;94684.75;;;7.39;62.34
11415;BME280;5763;42.714;23.244;2023-04-08T04:04:25;94680.34;;;7.29;62.38
11415;BME280;5763;42.714;23.244;2023-04-08T04:06:52;94685.94;;;7.38;61.99
11415;BME280;5763;42.714;23.244;2023-04-08T04:09:20;94682.47;;;7.38;61.91
11415;BME280;5763;42.714;23.244;2023-04-08T04:11:47;94681.50;;;7.44;61.27
11415;BME280;5763;42.714;23.244;2023-04-08T04:14:14;94687.81;;;7.41;61.14
11415;BME280;5763;42.714;23.244;2023-04-08T04:16:42;94684.75;;;7.39;61.59
11415;BME280;5763;42.714;23.244;2023-04-08T04:19:09;94688.66;;;7.38;61.39
11415;BME280;5763;42.714;23.244;2023-04-08T04:21:35;94684.75;;;7.39;61.26
11415;BME280;5763;42.714;23.244;2023-04-08T04:24:02;94701.44;;;7.41;61.49
11415;BME280;5763;42.714;23.244;2023-04-08T04:26:29;94701.91;;;7.52;61.35
11415;BME280;5763;42.714;23.244;2023-04-08T04:28:56;94706.94;;;7.54;61.19
11415;BME280;5763;42.714;23.244;2023-04-08T04:31:23;94703.34;;;7.57;61.15
11415;BME280;5763;42.714;23.244;2023-04-08T04:33:53;94708.03;;;7.56;61.34
11415;BME280;5763;42.714;23.244;2023-04-08T04:36:19;94701.72;;;7.59;61.10
11415;BME280;5763;42.714;23.244;2023-04-08T04:38:46;94706.00;;;7.60;60.94
11415;BME280;5763;42.714;23.244;2023-04-08T04:41:13;94700.03;;;7.65;61.10
11415;BME280;5763;42.714;23.244;2023-04-08T04:43:40;94699.66;;;7.63;61.04
11415;BME280;5763;42.714;23.244;2023-04-08T04:46:07;94700.88;;;7.62;61.08
11415;BME280;5763;42.714;23.244;2023-04-08T04:48:34;94693.47;;;7.63;61.22
11415;BME280;5763;42.714;23.244;2023-04-08T04:51:02;94696.63;;;7.61;61.42
11415;BME280;5763;42.714;23.244;2023-04-08T04:53:29;94701.72;;;7.59;61.63
11415;BME280;5763;42.714;23.244;2023-04-08T04:55:55;94702.81;;;7.62;61.79
11415;BME280;5763;42.714;23.244;2023-04-08T04:58:23;94707.09;;;7.63;61.72
11415;BME280;5763;42.714;23.244;2023-04-08T05:00:50;94706.63;;;7.64;61.36
11415;BME280;5763;42.714;23.244;2023-04-08T05:03:17;94712.59;;;7.59;61.75
11415;BME280;5763;42.714;23.244;2023-04-08T05:05:44;94711.59;;;7.53;61.79
11415;BME280;5763;42.714;23.244;2023-04-08T05:08:12;94708.06;;;7.40;62.00
11415;BME280;5763;42.714;23.244;2023-04-08T05:10:40;94715.78;;;7.42;62.14
11415;BME280;5763;42.714;23.244;2023-04-08T05:13:07;94701.25;;;7.48;61.76
11415;BME280;5763;42.714;23.244;2023-04-08T05:15:34;94708.88;;;7.53;61.64
11415;BME280;5763;42.714;23.244;2023-04-08T05:18:01;94709.41;;;7.48;61.63
11415;BME280;5763;42.714;23.244;2023-04-08T05:20:27;94714.91;;;7.61;61.20
11415;BME280;5763;42.714;23.244;2023-04-08T05:22:54;94703.28;;;7.73;60.81
11415;BME280;5763;42.714;23.244;2023-04-08T05:25:22;94704.06;;;7.73;60.89
11415;BME280;5763;42.714;23.244;2023-04-08T05:27:49;94702.78;;;7.90;60.41
11415;BME280;5763;42.714;23.244;2023-04-08T05:30:16;94713.16;;;7.95;60.17
11415;BME280;5763;42.714;23.244;2023-04-08T05:32:42;94710.69;;;8.01;60.07
11415;BME280;5763;42.714;23.244;2023-04-08T05:35:09;94706.72;;;7.89;60.61
11415;BME280;5763;42.714;23.244;2023-04-08T05:37:36;94712.69;;;7.84;60.79
11415;BME280;5763;42.714;23.244;2023-04-08T05:40:04;94714.56;;;7.87;60.76
11415;BME280;5763;42.714;23.244;2023-04-08T05:42:32;94711.56;;;8.10;60.38
11415;BME280;5763;42.714;23.244;2023-04-08T05:44:59;94716.47;;;8.15;60.18
11415;BME280;5763;42.714;23.244;2023-04-08T05:47:25;94711.69;;;8.19;59.26
11415;BME280;5763;42.714;23.244;2023-04-08T05:49:52;94713.81;;;8.28;58.98
11415;BME280;5763;42.714;23.244;2023-04-08T05:52:19;94713.94;;;8.37;59.13
11415;BME280;5763;42.714;23.244;2023-04-08T05:54:46;94707.63;;;8.40;59.11
11415;BME280;5763;42.714;23.244;2023-04-08T05:57:12;94699.53;;;8.36;59.10
11415;BME280;5763;42.714;23.244;2023-04-08T05:59:42;94704.91;;;8.52;59.31
11415;BME280;5763;42.714;23.244;2023-04-08T06:02:09;94698.25;;;8.53;59.49
11415;BME280;5763;42.714;23.244;2023-04-08T06:04:35;94698.69;;;8.64;58.75
11415;BME280;5763;42.714;23.244;2023-04-08T06:07:02;94706.44;;;8.66;58.54
11415;BME280;5763;42.714;23.244;2023-04-08T06:09:33;94695.72;;;8.71;58.50
11415;BME280;5763;42.714;23.244;2023-04-08T06:12:00;94697.72;;;8.71;58.67
11415;BME280;5763;42.714;23.244;2023-04-08T06:14:27;94706.09;;;8.76;58.09
11415;BME280;5763;42.714;23.244;2023-04-08T06:16:55;94705.00;;;8.86;57.81
11415;BME280;5763;42.714;23.244;2023-04-08T06:19:22;94706.63;;;8.84;57.98
11415;BME280;5763;42.714;23.244;2023-04-08T06:21:49;94701.06;;;8.87;58.11
11415;BME280;5763;42.714;23.244;2023-04-08T06:24:16;94702.28;;;8.74;58.47
11415;BME280;5763;42.714;23.244;2023-04-08T06:26:42;94697.25;;;8.85;58.29
11415;BME280;5763;42.714;23.244;2023-04-08T06:29:10;94705.00;;;8.86;58.28
11415;BME280;5763;42.714;23.244;2023-04-08T06:31:36;94696.47;;;8.97;58.46
11415;BME280;5763;42.714;23.244;2023-04-08T06:34:04;94704.13;;;9.02;58.29
11415;BME280;5763;42.714;23.244;2023-04-08T06:36:31;94698.66;;;9.02;57.56
11415;BME280;5763;42.714;23.244;2023-04-08T06:38:58;94714.69;;;8.87;57.64
11415;BME280;5763;42.714;23.244;2023-04-08T06:41:25;94715.25;;;8.95;57.34
11415;BME280;5763;42.714;23.244;2023-04-08T06:43:52;94713.03;;;9.15;56.31
11415;BME280;5763;42.714;23.244;2023-04-08T06:46:18;94707.38;;;9.09;56.92
11415;BME280;5763;42.714;23.244;2023-04-08T06:48:46;94711.97;;;9.00;56.68
11415;BME280;5763;42.714;23.244;2023-04-08T06:51:14;94712.06;;;9.09;56.46
11415;BME280;5763;42.714;23.244;2023-04-08T06:53:41;94709.22;;;9.12;56.48
11415;BME280;5763;42.714;23.244;2023-04-08T06:56:07;94710.66;;;9.17;56.27
11415;BME280;5763;42.714;23.244;2023-04-08T06:58:34;94716.81;;;9.30;56.30
11415;BME280;5763;42.714;23.244;2023-04-08T07:01:01;94706.03;;;9.26;56.21
11415;BME280;5763;42.714;23.244;2023-04-08T07:03:27;94714.31;;;9.35;56.12
11415;BME280;5763;42.714;23.244;2023-04-08T07:05:55;94719.63;;;9.51;55.50
11415;BME280;5763;42.714;23.244;2023-04-08T07:08:23;94705.13;;;9.63;55.36
11415;BME280;5763;42.714;23.244;2023-04-08T07:10:51;94713.47;;;9.60;55.26
11415;BME280;5763;42.714;23.244;2023-04-08T07:13:18;94723.31;;;9.57;55.86
11415;BME280;5763;42.714;23.244;2023-04-08T07:15:44;94720.25;;;9.55;55.25
11415;BME280;5763;42.714;23.244;2023-04-08T07:18:11;94714.84;;;9.64;54.65
11415;BME280;5763;42.714;23.244;2023-04-08T07:20:38;94721.13;;;9.52;55.34
11415;BME280;5763;42.714;23.244;2023-04-08T07:23:06;94727.72;;;9.76;54.90
11415;BME280;5763;42.714;23.244;2023-04-08T07:25:34;94723.09;;;9.86;55.16
11415;BME280;5763;42.714;23.244;2023-04-08T07:28:01;94726.91;;;9.88;55.63
11415;BME280;5763;42.714;23.244;2023-04-08T07:30:27;94731.50;;;9.91;55.22
11415;BME280;5763;42.714;23.244;2023-04-08T07:32:54;94725.69;;;9.89;55.72
11415;BME280;5763;42.714;23.244;2023-04-08T07:35:22;94735.19;;;9.97;54.72
11415;BME280;5763;42.714;23.244;2023-04-08T07:37:50;94724.88;;;10.01;54.59
11415;BME280;5763;42.714;23.244;2023-04-08T07:40:17;94727.69;;;10.10;54.37
11415;BME280;5763;42.714;23.244;2023-04-08T07:42:45;94735.59;;;10.08;55.09
11415;BME280;5763;42.714;23.244;2023-04-08T07:45:12;94730.44;;;9.98;54.98
11415;BME280;5763;42.714;23.244;2023-04-08T07:47:39;94741.69;;;10.12;54.56
11415;BME280;5763;42.714;23.244;2023-04-08T07:50:07;94754.66;;;10.21;55.11
11415;BME280;5763;42.714;23.244;2023-04-08T07:52:33;94742.13;;;10.32;54.98
11415;BME280;5763;42.714;23.244;2023-04-08T07:55:00;94734.69;;;10.33;55.13
11415;BME280;5763;42.714;23.244;2023-04-08T07:57:27;94749.44;;;10.35;54.74
11415;BME280;5763;42.714;23.244;2023-04-08T07:59:55;94744.41;;;10.34;55.09
11415;BME280;5763;42.714;23.244;2023-04-08T08:02:22;94764.69;;;10.45;54.81
11415;BME280;5763;42.714;23.244;2023-04-08T08:04:49;94769.84;;;10.43;54.02
11415;BME280;5763;42.714;23.244;2023-04-08T08:07:15;94749.78;;;10.37;53.83
11415;BME280;5763;42.714;23.244;2023-04-08T08:09:42;94747.06;;;10.46;53.02
11415;BME280;5763;42.714;23.244;2023-04-08T08:12:09;94748.03;;;10.52;53.90
11415;BME280;5763;42.714;23.244;2023-04-08T08:14:36;94745.47;;;10.58;54.24
11415;BME280;5763;42.714;23.244;2023-04-08T08:17:05;94749.13;;;10.64;54.00
11415;BME280;5763;42.714;23.244;2023-04-08T08:19:31;94753.88;;;10.63;54.19
11415;BME280;5763;42.714;23.244;2023-04-08T08:21:58;94756.63;;;10.72;53.76
11415;BME280;5763;42.714;23.244;2023-04-08T08:24:25;94754.97;;;10.75;53.54
11415;BME280;5763;42.714;23.244;2023-04-08T08:26:52;94760.13;;;10.73;54.04
11415;BME280;5763;42.714;23.244;2023-04-08T08:29:19;94762.84;;;10.94;53.05
11415;BME280;5763;42.714;23.244;2023-04-08T08:31:45;94753.94;;;11.21;52.55
11415;BME280;5763;42.714;23.244;2023-04-08T08:34:14;94738.28;;;11.21;52.93
11415;BME280;5763;42.714;23.244;2023-04-08T08:36:41;94755.81;;;11.33;53.03
11415;BME280;5763;42.714;23.244;2023-04-08T08:39:08;94750.75;;;11.22;53.60
11415;BME280;5763;42.714;23.244;2023-04-08T08:41:34;94755.34;;;11.25;53.66
11415;BME280;5763;42.714;23.244;2023-04-08T08:44:04;94744.88;;;11.33;53.63
11415;BME280;5763;42.714;23.244;2023-04-08T08:46:31;94737.41;;;11.42;54.29
11415;BME280;5763;42.714;23.244;2023-04-08T08:48:59;94741.41;;;11.50;53.95
11415;BME280;5763;42.714;23.244;2023-04-08T08:51:27;94756.47;;;11.55;53.24
11415;BME280;5763;42.714;23.244;2023-04-08T08:53:56;94749.66;;;11.68;52.59
11415;BME280;5763;42.714;23.244;2023-04-08T08:56:27;94745.84;;;11.66;52.79
11415;BME280;5763;42.714;23.244;2023-04-08T08:58:53;94742.69;;;11.76;52.60
11415;BME280;5763;42.714;23.244;2023-04-08T09:01:33;94740.84;;;11.82;52.50
11415;BME280;5763;42.714;23.244;2023-04-08T09:04:11;94743.75;;;11.97;52.07
11415;BME280;5763;42.714;23.244;2023-04-08T09:06:41;94755.78;;;12.17;51.89
11415;BME280;5763;42.714;23.244;2023-04-08T09:09:08;94750.31;;;12.26;51.31
11415;BME280;5763;42.714;23.244;2023-04-08T09:11:36;94755.63;;;12.30;50.68
11415;BME280;5763;42.714;23.244;2023-04-08T09:14:04;94762.31;;;12.47;49.94
11415;BME280;5763;42.714;23.244;2023-04-08T09:16:31;94758.50;;;12.53;49.09
11415;BME280;5763;42.714;23.244;2023-04-08T09:19:07;94759.66;;;12.70;49.15
11415;BME280;5763;42.714;23.244;2023-04-08T09:21:34;94754.78;;;12.74;49.81
11415;BME280;5763;42.714;23.244;2023-04-08T09:24:03;94751.53;;;12.85;49.55
11415;BME280;5763;42.714;23.244;2023-04-08T09:26:29;94755.06;;;12.85;49.09
11415;BME280;5763;42.714;23.244;2023-04-08T09:28:58;94728.13;;;12.66;49.07
11415;BME280;5763;42.714;23.244;2023-04-08T09:31:26;94748.00;;;13.02;48.12
11415;BME280;5763;42.714;23.244;2023-04-08T09:33:55;94741.66;;;13.20;48.75
11415;BME280;5763;42.714;23.244;2023-04-08T09:36:22;94744.13;;;13.50;48.77
11415;BME280;5763;42.714;23.244;2023-04-08T09:38:51;94747.34;;;13.49;48.07
11415;BME280;5763;42.714;23.244;2023-04-08T09:41:19;94742.94;;;13.42;47.08
11415;BME280;5763;42.714;23.244;2023-04-08T09:43:48;94732.81;;;13.48;46.75
11415;BME280;5763;42.714;23.244;2023-04-08T09:46:17;94739.50;;;13.56;47.17
11415;BME280;5763;42.714;23.244;2023-04-08T09:48:57;94731.03;;;14.07;47.58
11415;BME280;5763;42.714;23.244;2023-04-08T09:51:31;94727.13;;;14.22;47.31
11415;BME280;5763;42.714;23.244;2023-04-08T09:54:01;94729.31;;;14.33;45.35
11415;BME280;5763;42.714;23.244;2023-04-08T09:56:37;94720.31;;;14.76;45.56
11415;BME280;5763;42.714;23.244;2023-04-08T09:59:10;94723.59;;;15.09;45.27
11415;BME280;5763;42.714;23.244;2023-04-08T10:01:38;94711.59;;;15.26;44.27
11415;BME280;5763;42.714;23.244;2023-04-08T10:04:14;94708.16;;;15.86;42.47
11415;BME280;5763;42.714;23.244;2023-04-08T10:06:41;94702.97;;;16.13;41.05
11415;BME280;5763;42.714;23.244;2023-04-08T10:09:09;94701.31;;;16.21;40.94
11415;BME280;5763;42.714;23.244;2023-04-08T10:11:37;94700.13;;;16.28;40.57
11415;BME280;5763;42.714;23.244;2023-04-08T10:14:04;94697.03;;;16.20;40.24
11415;BME280;5763;42.714;23.244;2023-04-08T10:16:31;94697.91;;;15.86;40.72
11415;BME280;5763;42.714;23.244;2023-04-08T10:18:59;94686.41;;;15.53;40.81
11415;BME280;5763;42.714;23.244;2023-04-08T10:21:35;94700.22;;;15.33;40.94
11415;BME280;5763;42.714;23.244;2023-04-08T10:24:06;94693.00;;;15.07;41.03
11415;BME280;5763;42.714;23.244;2023-04-08T10:26:39;94684.84;;;15.32;40.93
11415;BME280;5763;42.714;23.244;2023-04-08T10:29:34;94689.75;;;15.77;41.43
11415;BME280;5763;42.714;23.244;2023-04-08T10:32:01;94689.91;;;15.34;40.81
11415;BME280;5763;42.714;23.244;2023-04-08T10:34:28;94687.97;;;15.05;41.14
11415;BME280;5763;42.714;23.244;2023-04-08T10:36:56;94684.56;;;14.96;41.90
11415;BME280;5763;42.714;23.244;2023-04-08T10:39:26;94677.25;;;15.42;41.16
11415;BME280;5763;42.714;23.244;2023-04-08T10:41:54;94676.22;;;15.79;41.11
11415;BME280;5763;42.714;23.244;2023-04-08T10:44:23;94675.16;;;16.17;40.36
11415;BME280;5763;42.714;23.244;2023-04-08T10:46:51;94670.00;;;16.50;39.84
11415;BME280;5763;42.714;23.244;2023-04-08T10:49:18;94670.88;;;16.92;39.17
11415;BME280;5763;42.714;23.244;2023-04-08T10:51:46;94668.09;;;17.23;37.64
11415;BME280;5763;42.714;23.244;2023-04-08T10:54:14;94661.00;;;17.22;37.68
11415;BME280;5763;42.714;23.244;2023-04-08T10:56:45;94663.16;;;17.07;37.21
11415;BME280;5763;42.714;23.244;2023-04-08T10:59:15;94661.66;;;17.06;38.08
11415;BME280;5763;42.714;23.244;2023-04-08T11:01:45;94647.69;;;16.53;37.93
11415;BME280;5763;42.714;23.244;2023-04-08T11:04:16;94661.31;;;15.91;38.03
11415;BME280;5763;42.714;23.244;2023-04-08T11:06:44;94650.16;;;15.60;38.96
11415;BME280;5763;42.714;23.244;2023-04-08T11:09:12;94644.66;;;15.40;39.98
11415;BME280;5763;42.714;23.244;2023-04-08T11:11:41;94638.78;;;15.33;40.43
11415;BME280;5763;42.714;23.244;2023-04-08T11:14:08;94643.81;;;15.20;39.76
11415;BME280;5763;42.714;23.244;2023-04-08T11:16:37;94648.13;;;15.06;41.35
11415;BME280;5763;42.714;23.244;2023-04-08T11:19:05;94636.50;;;14.97;40.13
11415;BME280;5763;42.714;23.244;2023-04-08T11:21:35;94636.56;;;15.02;40.77
11415;BME280;5763;42.714;23.244;2023-04-08T11:24:05;94632.63;;;15.23;39.94
11415;BME280;5763;42.714;23.244;2023-04-08T11:26:32;94623.31;;;15.21;40.13
11415;BME280;5763;42.714;23.244;2023-04-08T11:29:00;94627.28;;;15.20;39.70
11415;BME280;5763;42.714;23.244;2023-04-08T11:31:27;94619.91;;;15.11;40.56
11415;BME280;5763;42.714;23.244;2023-04-08T11:33:57;94621.00;;;14.99;40.89
11415;BME280;5763;42.714;23.244;2023-04-08T11:36:24;94615.81;;;15.61;40.99
11415;BME280;5763;42.714;23.244;2023-04-08T11:38:52;94610.34;;;16.12;40.07
11415;BME280;5763;42.714;23.244;2023-04-08T11:41:19;94625.63;;;16.08;39.23
11415;BME280;5763;42.714;23.244;2023-04-08T11:43:51;94608.78;;;15.80;38.18
11415;BME280;5763;42.714;23.244;2023-04-08T11:46:17;94614.31;;;15.40;38.58
11415;BME280;5763;42.714;23.244;2023-04-08T11:48:58;94602.56;;;15.25;38.26
11415;BME280;5763;42.714;23.244;2023-04-08T11:51:25;94606.69;;;15.15;39.29
11415;BME280;5763;42.714;23.244;2023-04-08T11:53:53;94608.72;;;15.00;39.45
11415;BME280;5763;42.714;23.244;2023-04-08T11:56:20;94604.16;;;14.63;39.60
11415;BME280;5763;42.714;23.244;2023-04-08T11:58:47;94614.16;;;14.46;40.78
11415;BME280;5763;42.714;23.244;2023-04-08T12:01:14;94607.25;;;14.21;40.55
11415;BME280;5763;42.714;23.244;2023-04-08T12:03:53;94608.53;;;13.97;40.72
11415;BME280;5763;42.714;23.244;2023-04-08T12:06:21;94610.81;;;13.84;41.83
11415;BME280;5763;42.714;23.244;2023-04-08T12:08:48;94604.72;;;13.65;41.26
11415;BME280;5763;42.714;23.244;2023-04-08T12:11:15;94600.78;;;13.57;41.96
11415;BME280;5763;42.714;23.244;2023-04-08T12:13:43;94592.06;;;13.59;41.21
11415;BME280;5763;42.714;23.244;2023-04-08T12:16:10;94589.31;;;13.59;41.82
11415;BME280;5763;42.714;23.244;2023-04-08T12:18:38;94608.09;;;13.60;41.83
11415;BME280;5763;42.714;23.244;2023-04-08T12:21:05;94601.84;;;13.60;41.66
11415;BME280;5763;42.714;23.244;2023-04-08T12:23:33;94598.50;;;13.56;42.77
11415;BME280;5763;42.714;23.244;2023-04-08T12:26:00;94593.84;;;13.47;42.77
11415;BME280;5763;42.714;23.244;2023-04-08T12:28:27;94589.41;;;13.50;42.83
11415;BME280;5763;42.714;23.244;2023-04-08T12:30:53;94587.31;;;13.45;42.53
11415;BME280;5763;42.714;23.244;2023-04-08T12:33:20;94584.38;;;13.48;42.57
11415;BME280;5763;42.714;23.244;2023-04-08T12:35:47;94579.34;;;13.47;43.35
11415;BME280;5763;42.714;23.244;2023-04-08T12:38:14;94581.91;;;13.50;43.45
11415;BME280;5763;42.714;23.244;2023-04-08T12:40:42;94585.59;;;13.47;43.36
11415;BME280;5763;42.714;23.244;2023-04-08T12:43:08;94581.16;;;13.50;42.74
11415;BME280;5763;42.714;23.244;2023-04-08T12:45:35;94593.25;;;13.43;42.65
11415;BME280;5763;42.714;23.244;2023-04-08T12:48:02;94590.28;;;13.32;42.84
11415;BME280;5763;42.714;23.244;2023-04-08T12:50:29;94589.44;;;13.26;43.43
11415;BME280;5763;42.714;23.244;2023-04-08T12:52:56;94590.34;;;13.23;43.68
11415;BME280;5763;42.714;23.244;2023-04-08T12:55:22;94594.94;;;13.26;44.13
11415;BME280;5763;42.714;23.244;2023-04-08T12:57:52;94594.06;;;13.20;43.72
11415;BME280;5763;42.714;23.244;2023-04-08T13:00:18;94595.50;;;13.30;43.49
11415;BME280;5763;42.714;23.244;2023-04-08T13:02:45;94588.78;;;13.31;45.17
11415;BME280;5763;42.714;23.244;2023-04-08T13:05:12;94590.22;;;13.41;45.63
11415;BME280;5763;42.714;23.244;2023-04-08T13:07:40;94575.19;;;13.51;46.46
11415;BME280;5763;42.714;23.244;2023-04-08T13:10:07;94576.75;;;14.39;46.58
11415;BME280;5763;42.714;23.244;2023-04-08T13:12:34;94578.16;;;15.18;43.62